Terminal Aerodrome Forecast
Issued by NWS Wilmington, OH

Home | Current Version | Previous Version | Text Only | Print | Product List | Glossary On
Versions: 1 2 3 4 5 6 7 8 9 10 11 12 13 14 15 16 17 18 19 20
000
FTUS41 KILN 200333 AAB
TAFILN
TAF AMD
KILN 200333Z 2004/2024 19005KT 2SM BR SCT250
      TEMPO 2004/2008 1/2SM FG VV005
     FM200800 00000KT 1/2SM FG VV005
     FM201300 00000KT 2SM BR BKN008
     FM201500 13004KT P6SM SCT015
     FM201800 14006KT P6SM SCT200=

USA.gov is the U.S. government's official web portal to all federal, state and local government web resources and services.